Time;durP1;ratioP1;P1;durP2;ratioP2;P2;SDS_P1;SDS_P2;PMS_P1;PMS_P2;Temp;Humidity;BMP_temperature;BMP_pressure;BME280_temperature;BME280_humidity;BME280_pressure;Samples;Min_cycle;Max_cycle;Signal;HPM_P1;HPM_P2
2021/09/25 00:02:06;;;;;;;13.77;7.47;;;;;;;8.27;94.38;98642.69;5050432;28;20017;-65
2021/09/25 00:04:33;;;;;;;10.88;7.15;;;;;;;8.48;94.66;98647.69;5062468;28;20313;-65
2021/09/25 00:06:58;;;;;;;11.02;6.05;;;;;;;8.58;95.36;98651.09;5054423;28;20059;-65
2021/09/25 00:09:24;;;;;;;13.77;8.23;;;;;;;8.41;94.24;98646.00;5058293;28;20029;-65
2021/09/25 00:11:49;;;;;;;12.60;6.53;;;;;;;8.48;94.73;98639.81;5047750;28;20033;-65
2021/09/25 00:14:15;;;;;;;14.38;6.82;;;;;;;8.27;94.10;98642.69;5055919;28;20025;-65
2021/09/25 00:16:40;;;;;;;11.52;6.85;;;;;;;8.25;93.91;98639.19;5065515;28;20043;-65
2021/09/25 00:19:05;;;;;;;11.70;6.68;;;;;;;8.02;93.75;98635.91;5065500;28;20272;-65
2021/09/25 00:21:31;;;;;;;15.52;6.53;;;;;;;8.13;95.04;98634.03;5065405;28;20080;-65
2021/09/25 00:23:57;;;;;;;10.55;6.32;;;;;;;8.26;94.58;98638.28;5055746;28;20027;-65
2021/09/25 00:26:23;;;;;;;11.75;7.15;;;;;;;8.25;95.16;98633.94;5052913;28;20029;-65
2021/09/25 00:28:49;;;;;;;9.77;6.35;;;;;;;8.34;94.16;98639.09;5061786;28;20027;-65
2021/09/25 00:31:15;;;;;;;9.90;5.97;;;;;;;8.20;94.32;98643.56;5059524;28;20087;-65
2021/09/25 00:33:41;;;;;;;12.15;5.82;;;;;;;8.02;94.67;98645.50;5059229;28;20025;-65
2021/09/25 00:36:07;;;;;;;8.55;5.95;;;;;;;7.98;94.32;98639.41;5054468;28;20071;-65
2021/09/25 00:38:32;;;;;;;11.20;6.90;;;;;;;7.95;94.48;98634.22;5051421;28;20062;-65
2021/09/25 00:40:59;;;;;;;13.45;7.03;;;;;;;8.01;94.84;98633.28;5061760;28;20033;-65
2021/09/25 00:43:24;;;;;;;11.45;7.30;;;;;;;7.94;94.72;98636.84;5058807;28;20021;-65
2021/09/25 00:45:50;;;;;;;11.38;7.00;;;;;;;7.93;94.62;98633.34;5055438;28;20063;-65
2021/09/25 00:48:15;;;;;;;13.07;7.45;;;;;;;8.05;94.78;98635.88;5061586;28;20369;-65
2021/09/25 00:50:41;;;;;;;13.52;7.70;;;;;;;7.91;94.21;98645.59;5061586;28;20025;-65
2021/09/25 00:53:06;;;;;;;11.18;7.03;;;;;;;7.67;93.84;98643.19;5048102;28;20021;-65
2021/09/25 00:55:32;;;;;;;11.18;6.25;;;;;;;7.65;93.96;98644.94;5050071;28;20043;-65
2021/09/25 00:58:01;;;;;;;11.02;6.53;;;;;;;7.70;93.95;98653.66;5056688;28;20021;-65
2021/09/25 01:00:27;;;;;;;10.88;6.82;;;;;;;7.75;94.12;98653.63;5054907;28;20020;-65
2021/09/25 01:02:53;;;;;;;10.05;6.55;;;;;;;7.62;94.22;98644.97;5051454;28;20021;-65
2021/09/25 01:05:20;;;;;;;9.23;5.93;;;;;;;7.61;94.81;98648.47;5050004;28;20386;-65
2021/09/25 01:07:46;;;;;;;10.05;6.40;;;;;;;7.55;94.59;98653.75;5049239;28;20063;-65
2021/09/25 01:10:12;;;;;;;13.23;6.45;;;;;;;7.58;94.77;98652.84;5055027;28;20013;-65
2021/09/25 01:12:37;;;;;;;8.40;5.45;;;;;;;7.69;93.66;98662.38;5054029;28;20036;-65
2021/09/25 01:15:05;;;;;;;11.43;6.30;;;;;;;7.71;94.14;98655.38;5055591;28;20032;-65
2021/09/25 01:17:30;;;;;;;8.95;5.53;;;;;;;7.71;94.45;98652.75;5056666;28;20209;-65
2021/09/25 01:19:56;;;;;;;9.27;5.75;;;;;;;7.59;94.76;98650.22;5062259;28;20032;-65
2021/09/25 01:22:23;;;;;;;10.48;6.18;;;;;;;7.57;94.08;98645.88;5047175;28;20024;-65
2021/09/25 01:24:48;;;;;;;13.30;7.68;;;;;;;7.60;95.45;98649.38;5050543;28;20013;-65
2021/09/25 01:27:13;;;;;;;10.93;6.95;;;;;;;7.55;94.51;98645.91;5061924;28;20021;-65
2021/09/25 01:29:39;;;;;;;14.23;7.63;;;;;;;7.52;94.94;98643.28;5057700;28;20025;-65
2021/09/25 01:32:05;;;;;;;15.63;6.35;;;;;;;7.59;94.60;98655.47;5051367;28;20063;-65
2021/09/25 01:34:30;;;;;;;11.60;7.05;;;;;;;7.66;94.85;98645.81;5062439;28;20016;-65
2021/09/25 01:36:56;;;;;;;12.65;7.07;;;;;;;7.63;93.99;98641.44;5049867;28;20017;-65
2021/09/25 01:39:21;;;;;;;15.90;6.32;;;;;;;7.36;94.12;98636.44;5048831;28;20021;-65
2021/09/25 01:41:47;;;;;;;9.85;6.68;;;;;;;7.41;95.29;98639.91;5054104;28;20281;-65
2021/09/25 01:44:12;;;;;;;10.68;6.05;;;;;;;7.36;93.87;98643.41;5052206;28;20313;-65
2021/09/25 01:46:38;;;;;;;10.20;5.60;;;;;;;7.30;94.49;98652.16;5052690;28;20084;-65
2021/09/25 01:49:04;;;;;;;9.10;5.75;;;;;;;7.40;94.30;98646.00;5052300;28;20021;-65
2021/09/25 01:51:29;;;;;;;8.40;5.50;;;;;;;7.22;94.09;98653.97;5060017;28;20024;-65
2021/09/25 01:53:55;;;;;;;11.95;6.55;;;;;;;7.19;94.27;98647.88;5047879;28;20021;-65
2021/09/25 01:56:20;;;;;;;9.75;6.00;;;;;;;7.26;94.27;98650.47;5057796;28;20024;-65
2021/09/25 01:58:46;;;;;;;9.50;5.18;;;;;;;7.26;93.83;98660.03;5057189;28;20017;-65
2021/09/25 02:01:12;;;;;;;9.23;6.07;;;;;;;7.31;94.22;98655.66;5053200;28;20045;-65
2021/09/25 02:03:37;;;;;;;11.25;6.43;;;;;;;7.32;94.12;98649.53;5048589;28;20021;-65
2021/09/25 02:06:04;;;;;;;8.27;5.45;;;;;;;7.34;93.93;98650.41;5061405;28;20028;-65
2021/09/25 02:08:30;;;;;;;10.43;5.50;;;;;;;7.16;93.18;98654.00;5052013;28;20035;-65
2021/09/25 02:10:56;;;;;;;10.85;5.95;;;;;;;7.10;94.47;98655.78;5053296;28;20025;-65
2021/09/25 02:13:21;;;;;;;8.10;5.47;;;;;;;7.10;94.60;98659.28;5054900;28;20072;-65
2021/09/25 02:15:47;;;;;;;11.50;5.20;;;;;;;7.22;94.07;98648.75;5053787;28;20013;-65
2021/09/25 02:18:12;;;;;;;11.95;5.22;;;;;;;6.91;93.83;98647.16;5056683;28;20025;-65
2021/09/25 02:20:37;;;;;;;8.82;5.03;;;;;;;7.01;94.06;98643.63;5054007;28;20056;-65
2021/09/25 02:23:03;;;;;;;10.25;6.00;;;;;;;7.00;94.36;98641.00;5054076;28;20194;-65
2021/09/25 02:25:28;;;;;;;12.98;5.65;;;;;;;6.85;94.63;98641.94;5051595;28;20021;-65
2021/09/25 02:27:54;;;;;;;8.13;5.68;;;;;;;6.80;94.71;98633.25;5053815;28;20021;-65
2021/09/25 02:30:21;;;;;;;7.90;4.13;;;;;;;6.82;94.87;98641.97;5052167;28;20027;-65
2021/09/25 02:32:48;;;;;;;8.13;4.40;;;;;;;6.94;94.63;98641.91;5046927;28;20199;-65
2021/09/25 02:35:16;;;;;;;7.68;4.35;;;;;;;6.88;94.49;98636.72;5054892;28;20025;-65
2021/09/25 02:37:42;;;;;;;7.82;4.80;;;;;;;6.87;94.00;98629.75;5060539;28;20026;-65
2021/09/25 02:40:09;;;;;;;7.72;5.00;;;;;;;6.94;94.54;98636.69;5053234;28;20029;-65
2021/09/25 02:42:35;;;;;;;7.95;4.78;;;;;;;7.00;95.08;98628.81;5050685;28;20108;-65
2021/09/25 02:45:01;;;;;;;9.45;5.65;;;;;;;7.11;94.50;98640.06;5046793;28;20267;-65
2021/09/25 02:47:26;;;;;;;8.85;5.70;;;;;;;7.21;93.84;98646.13;5046804;28;20021;-65
2021/09/25 02:49:52;;;;;;;7.88;5.25;;;;;;;7.17;93.79;98634.81;5056571;28;20028;-65
2021/09/25 02:52:17;;;;;;;9.32;5.43;;;;;;;7.15;93.87;98636.53;5061052;28;20032;-65
2021/09/25 02:54:42;;;;;;;9.40;5.18;;;;;;;7.00;94.15;98635.78;5061096;28;20316;-65
2021/09/25 02:57:08;;;;;;;8.52;5.18;;;;;;;7.11;94.45;98642.69;5046071;28;20060;-65
2021/09/25 02:59:33;;;;;;;13.70;6.35;;;;;;;7.01;94.66;98648.84;5056091;28;20021;-65
2021/09/25 03:01:58;;;;;;;14.93;7.20;;;;;;;6.99;94.49;98645.34;5050158;28;20021;-65
2021/09/25 03:04:24;;;;;;;18.20;7.22;;;;;;;6.92;94.03;98643.66;5064981;28;20029;-65
2021/09/25 03:06:49;;;;;;;11.85;6.32;;;;;;;7.01;94.75;98638.38;5054938;28;20084;-65
2021/09/25 03:09:15;;;;;;;12.77;6.53;;;;;;;6.80;94.54;98629.78;5051429;28;20033;-65
2021/09/25 03:11:40;;;;;;;17.95;6.47;;;;;;;6.88;94.93;98636.72;5064334;28;20035;-65
2021/09/25 03:14:06;;;;;;;7.95;5.55;;;;;;;6.82;94.37;98625.41;5058859;28;20041;-65
2021/09/25 03:16:31;;;;;;;10.68;6.53;;;;;;;6.75;94.51;98619.34;5049966;28;20274;-65
2021/09/25 03:18:57;;;;;;;10.60;5.78;;;;;;;6.73;94.35;98615.84;5055549;28;20021;-65
2021/09/25 03:21:22;;;;;;;11.07;6.35;;;;;;;6.72;94.66;98616.72;5049782;28;20328;-65
2021/09/25 03:23:48;;;;;;;12.57;6.95;;;;;;;6.74;95.27;98609.72;5057020;28;20025;-65
2021/09/25 03:26:13;;;;;;;31.70;8.13;;;;;;;6.78;95.43;98608.88;5056064;28;20028;-65
2021/09/25 03:28:38;;;;;;;13.75;7.28;;;;;;;6.89;95.22;98617.50;5052980;28;20017;-65
2021/09/25 03:31:04;;;;;;;18.15;7.45;;;;;;;6.90;95.10;98618.38;5050061;28;20253;-65
2021/09/25 03:33:29;;;;;;;16.52;6.80;;;;;;;6.70;94.75;98613.25;5055876;28;20021;-65
2021/09/25 03:35:55;;;;;;;18.05;7.85;;;;;;;6.76;95.00;98614.97;5053728;28;20026;-65
2021/09/25 03:38:25;;;;;;;21.55;7.07;;;;;;;6.85;95.30;98610.56;5052561;28;20084;-65
2021/09/25 03:40:51;;;;;;;15.35;6.85;;;;;;;6.65;95.27;98607.19;5056419;28;20021;-65
2021/09/25 03:43:18;;;;;;;12.23;6.38;;;;;;;6.72;94.98;98603.66;5056939;28;20075;-65
2021/09/25 03:45:43;;;;;;;29.63;8.25;;;;;;;6.53;94.87;98609.84;5059024;28;20017;-65
2021/09/25 03:48:09;;;;;;;13.73;7.97;;;;;;;6.47;94.86;98610.75;5061133;28;20017;-65
2021/09/25 03:50:35;;;;;;;10.25;5.95;;;;;;;6.48;94.20;98617.69;5051069;28;20044;-65
2021/09/25 03:53:01;;;;;;;10.70;4.85;;;;;;;6.44;93.75;98618.59;5052199;28;20020;-65
2021/09/25 03:55:27;;;;;;;18.17;6.75;;;;;;;6.46;93.97;98626.44;5059511;28;20041;-65
2021/09/25 03:57:53;;;;;;;12.43;6.65;;;;;;;6.50;93.60;98623.81;5048642;28;20028;-65
2021/09/25 04:00:19;;;;;;;16.73;6.20;;;;;;;6.38;94.35;98628.19;5052492;28;20024;-65
2021/09/25 04:02:45;;;;;;;10.80;6.10;;;;;;;6.50;94.23;98628.16;5054537;28;20017;-65
2021/09/25 04:05:11;;;;;;;14.27;6.80;;;;;;;6.50;93.66;98630.75;5052500;28;20020;-65
2021/09/25 04:07:36;;;;;;;8.70;5.38;;;;;;;6.47;94.19;98630.78;5051192;28;20060;-65
2021/09/25 04:10:03;;;;;;;13.15;5.97;;;;;;;6.54;94.16;98629.88;5047989;28;20049;-65
2021/09/25 04:12:29;;;;;;;11.65;6.45;;;;;;;6.59;94.23;98628.13;5050042;28;20080;-65
2021/09/25 04:14:55;;;;;;;10.85;6.32;;;;;;;6.50;93.35;98615.97;5064193;28;20116;-65
2021/09/25 04:17:20;;;;;;;8.05;5.20;;;;;;;6.44;93.64;98630.78;5051404;28;20026;-65
2021/09/25 04:19:45;;;;;;;13.70;5.90;;;;;;;6.44;93.85;98622.94;5061427;28;20367;-65
2021/09/25 04:22:11;;;;;;;10.18;6.07;;;;;;;6.38;93.97;98622.97;5048557;28;20026;-65
2021/09/25 04:24:36;;;;;;;9.48;5.90;;;;;;;6.24;93.96;98620.38;5056462;28;20084;-65
2021/09/25 04:27:02;;;;;;;10.73;6.10;;;;;;;6.23;94.03;98629.09;5062902;28;20021;-65
2021/09/25 04:29:27;;;;;;;9.13;5.50;;;;;;;6.33;94.46;98629.97;5051458;28;20033;-65
2021/09/25 04:31:52;;;;;;;12.75;7.32;;;;;;;6.25;93.86;98629.97;5049631;28;20045;-65
2021/09/25 04:34:18;;;;;;;10.52;6.38;;;;;;;6.23;94.06;98628.22;5060500;28;20197;-65
2021/09/25 04:36:43;;;;;;;12.35;5.70;;;;;;;6.14;94.02;98633.50;5048934;28;20018;-65
2021/09/25 04:39:09;;;;;;;11.43;5.80;;;;;;;6.21;94.54;98635.22;5057181;28;20056;-65
2021/09/25 04:41:34;;;;;;;10.18;6.53;;;;;;;6.10;94.41;98629.13;5063780;28;20021;-65
2021/09/25 04:44:00;;;;;;;9.68;6.25;;;;;;;6.19;94.46;98629.09;5048294;28;20316;-65
2021/09/25 04:46:25;;;;;;;22.33;5.90;;;;;;;6.15;94.40;98624.78;5049556;28;20212;-65
2021/09/25 04:48:51;;;;;;;9.07;5.85;;;;;;;6.14;94.53;98623.03;5062796;28;20031;-65
2021/09/25 04:51:17;;;;;;;9.25;5.65;;;;;;;6.24;94.39;98624.75;5060380;28;20063;-65
2021/09/25 04:53:43;;;;;;;10.27;6.38;;;;;;;5.99;94.17;98612.59;5048296;28;20025;-65
2021/09/25 04:56:10;;;;;;;14.30;7.15;;;;;;;5.93;93.87;98618.72;5062225;28;20228;-65
2021/09/25 04:58:35;;;;;;;11.07;6.20;;;;;;;6.08;94.58;98621.28;5048092;28;20029;-65
2021/09/25 05:01:02;;;;;;;9.18;5.47;;;;;;;6.09;94.21;98624.78;5054381;28;20029;-65
2021/09/25 05:03:27;;;;;;;8.27;5.38;;;;;;;5.95;94.03;98621.31;5062493;28;20016;-65
2021/09/25 05:05:52;;;;;;;8.70;5.22;;;;;;;5.99;94.40;98620.44;5058742;28;20041;-65
2021/09/25 05:08:18;;;;;;;12.88;5.75;;;;;;;5.92;93.73;98618.72;5049959;28;20408;-65
2021/09/25 05:10:44;;;;;;;9.13;5.57;;;;;;;5.83;94.23;98617.00;5054171;28;20247;-65
2021/09/25 05:13:09;;;;;;;8.82;5.15;;;;;;;5.88;94.50;98609.13;5045283;28;20060;-65
2021/09/25 05:15:35;;;;;;;9.73;5.70;;;;;;;5.97;93.75;98611.72;5051441;28;20335;-65
2021/09/25 05:18:00;;;;;;;13.63;5.80;;;;;;;5.92;93.77;98621.34;5058720;28;20021;-65
2021/09/25 05:20:26;;;;;;;8.20;5.20;;;;;;;5.91;94.12;98614.34;5060681;28;20027;-65
2021/09/25 05:22:51;;;;;;;8.70;5.40;;;;;;;5.86;93.61;98611.75;5047301;28;20022;-65
2021/09/25 05:25:17;;;;;;;8.00;4.80;;;;;;;5.93;93.06;98613.50;5047335;28;20348;-65
2021/09/25 05:27:42;;;;;;;8.20;5.07;;;;;;;5.86;92.82;98611.75;5047403;28;20221;-65
2021/09/25 05:30:10;;;;;;;9.32;5.28;;;;;;;5.75;93.44;98612.59;5046648;28;20025;-65
2021/09/25 05:32:36;;;;;;;10.73;5.47;;;;;;;5.71;93.50;98621.31;5051172;28;20028;-65
2021/09/25 05:35:02;;;;;;;8.82;5.28;;;;;;;5.70;93.81;98615.19;5047160;28;20217;-65
2021/09/25 05:37:28;;;;;;;7.32;4.63;;;;;;;5.67;93.70;98619.56;5054142;28;20028;-65
2021/09/25 05:39:56;;;;;;;6.00;3.65;;;;;;;5.71;93.60;98621.31;5056058;28;20317;-65
2021/09/25 05:42:23;;;;;;;8.63;4.63;;;;;;;5.70;93.45;98627.41;5054422;28;20256;-65
2021/09/25 05:44:49;;;;;;;8.20;4.57;;;;;;;5.82;93.54;98627.44;5061840;28;20021;-65
2021/09/25 05:47:15;;;;;;;6.25;4.20;;;;;;;5.87;93.74;98633.50;5053557;28;20037;-65
2021/09/25 05:49:41;;;;;;;6.68;4.40;;;;;;;6.04;93.44;98630.00;5057409;28;20328;-65
2021/09/25 05:52:08;;;;;;;6.95;4.40;;;;;;;6.11;92.92;98638.72;5061598;28;20036;-65
2021/09/25 05:54:35;;;;;;;8.60;4.43;;;;;;;6.31;93.15;98636.91;5058028;28;20025;-65
2021/09/25 05:57:00;;;;;;;6.03;4.03;;;;;;;6.50;92.57;98630.75;5054024;28;20024;-65
2021/09/25 05:59:26;;;;;;;6.05;4.10;;;;;;;6.71;92.01;98622.84;5056934;28;20085;-65
2021/09/25 06:01:51;;;;;;;5.63;3.70;;;;;;;6.95;92.26;98627.94;5052140;28;20070;-65
2021/09/25 06:04:17;;;;;;;5.68;3.90;;;;;;;7.18;91.38;98627.84;5047414;28;20017;-66
2021/09/25 06:06:42;;;;;;;8.63;4.75;;;;;;;7.35;90.15;98621.59;5059325;28;20035;-66
2021/09/25 06:09:07;;;;;;;6.22;4.22;;;;;;;7.24;89.95;98635.66;5054911;28;20095;-66
2021/09/25 06:11:33;;;;;;;7.97;4.43;;;;;;;7.70;89.64;98622.22;5049293;28;20026;-66
2021/09/25 06:13:58;;;;;;;7.60;4.40;;;;;;;8.13;88.77;98628.78;5056217;28;20049;-66
2021/09/25 06:16:23;;;;;;;8.13;4.88;;;;;;;8.64;88.03;98628.25;5055811;28;20018;-66
2021/09/25 06:18:49;;;;;;;7.93;4.28;;;;;;;9.11;84.82;98619.75;5054134;28;20032;-66
2021/09/25 06:21:14;;;;;;;7.10;4.53;;;;;;;8.68;85.81;98629.09;5054140;28;20018;-66
2021/09/25 06:23:40;;;;;;;6.90;4.45;;;;;;;9.10;86.96;98628.53;5050070;28;20017;-66
2021/09/25 06:26:07;;;;;;;6.07;3.83;;;;;;;10.11;82.61;98634.84;5056575;28;20032;-66
2021/09/25 06:28:32;;;;;;;6.97;3.85;;;;;;;10.80;79.26;98636.16;5054721;28;20044;-66
2021/09/25 06:30:58;;;;;;;5.60;3.75;;;;;;;11.17;78.01;98644.19;5050443;28;20442;-66
2021/09/25 06:33:23;;;;;;;6.28;3.85;;;;;;;11.60;77.12;98644.94;5053956;28;20033;-66
2021/09/25 06:35:48;;;;;;;7.95;5.03;;;;;;;11.91;75.84;98636.31;5061832;28;20024;-66
2021/09/25 06:38:14;;;;;;;6.68;4.38;;;;;;;11.93;76.10;98633.63;5067579;28;20031;-66
2021/09/25 06:40:39;;;;;;;8.00;4.13;;;;;;;12.59;73.89;98631.84;5067452;28;20215;-66
2021/09/25 06:43:05;;;;;;;5.95;4.15;;;;;;;12.98;73.24;98628.97;5067451;28;20083;-66
2021/09/25 06:45:32;;;;;;;8.70;4.57;;;;;;;13.18;72.86;98624.91;5067168;28;20025;-66
2021/09/25 06:47:59;;;;;;;7.18;4.53;;;;;;;13.21;71.63;98616.88;5067207;28;20115;-66
2021/09/25 06:50:25;;;;;;;7.25;4.40;;;;;;;13.76;70.63;98623.06;5066702;28;20243;-66
2021/09/25 06:52:51;;;;;;;6.53;4.15;;;;;;;13.93;70.34;98626.03;5047510;28;20325;-66
2021/09/25 06:55:16;;;;;;;13.45;4.95;;;;;;;14.22;69.92;98630.34;5048433;28;20032;-66
2021/09/25 06:57:42;;;;;;;7.03;4.32;;;;;;;14.82;70.03;98625.59;5067760;28;20221;-67
2021/09/25 07:00:08;;;;;;;34.33;6.72;;;;;;;15.30;68.12;98623.75;5067724;28;20021;-66
2021/09/25 07:02:39;;;;;;;13.07;5.25;;;;;;;15.66;67.01;98632.97;5068281;28;20241;-66
2021/09/25 07:05:07;;;;;;;10.82;5.75;;;;;;;16.08;66.26;98623.28;5068364;28;20024;-67
2021/09/25 07:07:32;;;;;;;8.10;5.25;;;;;;;16.30;65.46;98625.91;5058331;28;20076;-66
2021/09/25 07:09:57;;;;;;;6.38;4.53;;;;;;;16.89;63.98;98633.03;5048655;28;20025;-66
2021/09/25 07:12:23;;;;;;;8.73;5.20;;;;;;;17.32;62.27;98620.44;5049022;28;20041;-66
2021/09/25 07:14:48;;;;;;;9.13;4.93;;;;;;;17.58;62.47;98633.41;5047544;28;20025;-67
2021/09/25 07:17:14;;;;;;;9.52;5.05;;;;;;;17.79;61.40;98632.41;5066950;28;20067;-67
2021/09/25 07:19:39;;;;;;;7.03;5.15;;;;;;;18.21;60.77;98632.97;5061474;28;20208;-67
2021/09/25 07:22:07;;;;;;;9.13;6.13;;;;;;;18.45;59.98;98623.78;5048200;28;20025;-67
2021/09/25 07:24:36;;;;;;;9.23;5.50;;;;;;;18.31;61.30;98628.88;5047935;28;20025;-67
2021/09/25 07:27:02;;;;;;;10.50;6.57;;;;;;;18.95;58.85;98624.66;5048145;28;20036;-66
2021/09/25 07:29:28;;;;;;;10.00;6.97;;;;;;;18.97;57.81;98628.13;5048355;28;20224;-67
2021/09/25 07:31:53;;;;;;;9.52;6.15;;;;;;;18.10;60.01;98622.00;5048738;28;20055;-67
2021/09/25 07:34:18;;;;;;;8.55;6.38;;;;;;;19.08;59.13;98620.44;5049674;28;20024;-66
2021/09/25 07:36:44;;;;;;;11.20;5.90;;;;;;;19.03;59.49;98622.47;5049279;28;20029;-67
2021/09/25 07:39:10;;;;;;;10.85;5.70;;;;;;;19.77;58.32;98627.25;5049243;28;20025;-67
2021/09/25 07:41:36;;;;;;;8.85;6.03;;;;;;;19.69;58.23;98617.94;5049259;28;20025;-66
2021/09/25 07:44:05;;;;;;;14.93;7.05;;;;;;;18.60;63.49;98633.63;5048155;28;20029;-66
2021/09/25 07:46:31;;;;;;;9.90;6.50;;;;;;;20.09;58.86;98628.94;5049051;28;20032;-66
2021/09/25 07:48:59;;;;;;;11.25;6.32;;;;;;;18.86;62.76;98630.50;5061533;28;20013;-66
2021/09/25 07:51:25;;;;;;;9.52;6.18;;;;;;;20.13;60.61;98630.56;5053751;28;20351;-66
2021/09/25 07:53:51;;;;;;;12.45;6.40;;;;;;;21.21;58.11;98634.69;5046882;28;20033;-66
2021/09/25 07:56:16;;;;;;;9.07;6.18;;;;;;;21.71;58.31;98635.97;5052679;28;20017;-66
2021/09/25 07:58:42;;;;;;;10.68;6.38;;;;;;;21.83;57.38;98635.22;5046089;28;20021;-66
2021/09/25 08:01:07;;;;;;;11.68;6.63;;;;;;;22.42;55.75;98637.50;5045423;28;20048;-66
2021/09/25 08:03:33;;;;;;;9.77;6.10;;;;;;;22.43;56.27;98631.22;5046248;28;20367;-66
2021/09/25 08:05:58;;;;;;;10.02;6.50;;;;;;;22.77;55.38;98620.78;5046359;28;20088;-66
2021/09/25 08:08:23;;;;;;;12.77;5.90;;;;;;;23.05;55.47;98622.41;5045398;28;20316;-66
2021/09/25 08:10:49;;;;;;;12.52;5.95;;;;;;;23.10;54.95;98625.66;5046727;28;20025;-66
2021/09/25 08:13:15;;;;;;;8.40;6.53;;;;;;;22.83;55.57;98620.38;5046804;28;20093;-66
2021/09/25 08:15:40;;;;;;;12.75;6.68;;;;;;;23.14;53.30;98617.28;5046823;28;20064;-66
2021/09/25 08:18:07;;;;;;;14.95;6.60;;;;;;;22.39;58.08;98635.03;5046704;28;20025;-66
2021/09/25 08:20:32;;;;;;;12.20;6.95;;;;;;;23.44;54.56;98625.00;5046591;28;20221;-66
2021/09/25 08:22:58;;;;;;;23.05;8.90;;;;;;;24.30;51.66;98622.22;5046769;28;20029;-66
2021/09/25 08:25:24;;;;;;;28.40;10.05;;;;;;;23.43;54.45;98617.94;5046731;28;20033;-66
2021/09/25 08:27:51;;;;;;;15.75;8.30;;;;;;;23.83;54.16;98622.16;5046640;28;20075;-66
2021/09/25 08:30:19;;;;;;;16.63;7.88;;;;;;;24.02;52.95;98621.69;5046276;28;20033;-66
2021/09/25 08:32:45;;;;;;;13.82;7.22;;;;;;;24.28;54.19;98607.16;5046612;28;20112;-66
2021/09/25 08:35:10;;;;;;;12.88;7.07;;;;;;;24.78;53.09;98613.13;5046472;28;20323;-66
2021/09/25 08:37:37;;;;;;;13.65;7.47;;;;;;;25.28;52.01;98612.75;5046623;28;20025;-66
2021/09/25 08:40:08;;;;;;;17.00;7.50;;;;;;;24.74;52.49;98610.81;5046222;28;20021;-66
2021/09/25 08:42:34;;;;;;;11.23;6.18;;;;;;;25.42;51.75;98613.53;5046254;28;20017;-66
2021/09/25 08:45:00;;;;;;;10.90;6.35;;;;;;;25.90;49.32;98623.91;5046261;28;20052;-66
2021/09/25 08:47:25;;;;;;;11.98;5.93;;;;;;;25.79;50.59;98612.28;5045956;28;20305;-66
2021/09/25 08:49:51;;;;;;;14.23;6.30;;;;;;;26.41;49.69;98602.59;5046066;28;20083;-66
2021/09/25 08:52:17;;;;;;;9.88;6.43;;;;;;;26.21;49.90;98606.09;5046074;28;20084;-66
2021/09/25 08:54:43;;;;;;;17.27;6.53;;;;;;;26.00;50.61;98603.34;5045987;28;20092;-66
2021/09/25 08:57:09;;;;;;;12.15;6.13;;;;;;;26.16;50.64;98611.03;5045506;28;20024;-66
2021/09/25 08:59:34;;;;;;;12.15;6.20;;;;;;;26.08;50.23;98600.88;5045621;28;20021;-67
2021/09/25 09:02:17;;;;;;;9.23;5.80;;;;;;;26.92;48.63;98595.50;5045576;28;20084;-67
2021/09/25 09:04:53;;;;;;;15.43;6.60;;;;;;;26.15;51.42;98595.81;5045532;28;20321;-67
2021/09/25 09:07:21;;;;;;;11.63;7.38;;;;;;;26.01;50.27;98590.72;5045255;28;20346;-67
2021/09/25 09:09:47;;;;;;;11.43;6.93;;;;;;;26.83;48.97;98596.31;5045446;28;20044;-67
2021/09/25 09:12:14;;;;;;;18.48;6.28;;;;;;;26.67;49.98;98596.75;5045029;28;20041;-67
2021/09/25 09:14:45;;;;;;;10.18;6.38;;;;;;;26.87;47.46;98586.94;5045630;28;20025;-67
2021/09/25 09:17:15;;;;;;;12.63;6.40;;;;;;;27.47;46.74;98592.47;5045196;28;20044;-67
2021/09/25 09:19:41;;;;;;;14.40;6.38;;;;;;;27.64;46.99;98589.09;5044866;28;20024;-67
2021/09/25 09:22:08;;;;;;;10.32;6.20;;;;;;;26.92;48.60;98579.28;5045153;28;20346;-67
2021/09/25 09:25:05;;;;;;;10.23;5.30;;;;;;;27.21;45.48;98586.59;5045000;28;20021;-67
2021/09/25 09:27:31;;;;;;;7.70;5.18;;;;;;;27.45;48.25;98583.59;5044585;28;20108;-67
2021/09/25 09:30:08;;;;;;;11.60;5.72;;;;;;;27.55;46.43;98592.63;5044974;28;20017;-67
2021/09/25 09:32:38;;;;;;;11.23;6.00;;;;;;;27.83;46.32;98586.47;5056939;28;20186;-67
2021/09/25 09:35:11;;;;;;;8.45;5.55;;;;;;;27.67;46.02;98586.13;5064712;28;20336;-67
2021/09/25 09:37:36;;;;;;;16.02;6.50;;;;;;;27.23;45.50;98591.84;5064805;28;20020;-67
2021/09/25 09:40:04;;;;;;;11.93;5.75;;;;;;;27.32;46.78;98593.78;5064762;28;20046;-67
2021/09/25 09:42:46;;;;;;;9.60;6.07;;;;;;;27.49;44.82;98595.03;5064726;28;20048;-67
2021/09/25 09:45:12;;;;;;;13.20;6.25;;;;;;;26.97;45.33;98594.13;5064949;28;20032;-67
2021/09/25 09:47:45;;;;;;;10.65;6.05;;;;;;;26.57;46.26;98594.91;5064636;28;20016;-67
2021/09/25 09:50:13;;;;;;;11.27;5.78;;;;;;;27.00;46.42;98593.00;5063402;28;20313;-67
2021/09/25 09:52:39;;;;;;;12.70;5.90;;;;;;;26.70;47.44;98584.84;5064612;28;20017;-67
2021/09/25 09:55:06;;;;;;;9.45;5.97;;;;;;;26.55;46.51;98588.81;5064488;28;20024;-67
2021/09/25 09:57:33;;;;;;;9.02;5.97;;;;;;;27.07;45.68;98583.38;5064636;28;20017;-67
2021/09/25 09:59:59;;;;;;;11.75;6.20;;;;;;;26.96;47.03;98586.16;5064212;28;20357;-67
2021/09/25 10:02:24;;;;;;;8.52;5.65;;;;;;;27.03;46.20;98581.94;5064660;28;20048;-67
2021/09/25 10:04:50;;;;;;;9.95;6.13;;;;;;;27.24;46.01;98585.50;5064675;28;20039;-67
2021/09/25 10:07:15;;;;;;;15.13;6.50;;;;;;;26.77;47.14;98575.22;5064670;28;20212;-66
2021/09/25 10:09:41;;;;;;;10.07;6.18;;;;;;;26.42;47.51;98582.72;5068549;28;20044;-66
2021/09/25 10:12:09;;;;;;;13.07;5.95;;;;;;;26.15;49.05;98582.31;5068525;28;20408;-66
2021/09/25 10:14:38;;;;;;;12.07;6.07;;;;;;;26.90;47.06;98575.88;5068736;28;20024;-66
2021/09/25 10:17:06;;;;;;;10.35;6.10;;;;;;;26.63;49.07;98573.69;5059365;28;20017;-66
2021/09/25 10:19:34;;;;;;;10.32;5.43;;;;;;;27.28;46.19;98576.16;5048799;28;20013;-66
2021/09/25 10:22:07;;;;;;;11.02;5.90;;;;;;;26.50;48.01;98574.81;5048874;28;20085;-66
2021/09/25 10:24:35;;;;;;;12.85;7.13;;;;;;;25.71;47.90;98568.91;5048663;28;20017;-66
2021/09/25 10:27:04;;;;;;;9.30;6.18;;;;;;;26.63;47.83;98562.91;5055466;28;20024;-66
2021/09/25 10:29:30;;;;;;;8.63;5.63;;;;;;;26.77;47.46;98548.22;5066124;28;20025;-66
2021/09/25 10:32:27;;;;;;;7.95;5.30;;;;;;;26.16;47.13;98559.78;5067465;28;20029;-66
2021/09/25 10:35:08;;;;;;;10.23;5.35;;;;;;;26.62;48.75;98545.00;5067359;28;20039;-66
2021/09/25 10:37:55;;;;;;;11.68;5.70;;;;;;;26.98;46.52;98546.34;5059894;28;20017;-66
2021/09/25 10:40:24;;;;;;;7.70;5.07;;;;;;;26.99;46.69;98543.50;5067274;28;20366;-66
2021/09/25 10:42:55;;;;;;;13.32;5.70;;;;;;;27.46;47.01;98542.06;5067383;28;20017;-66
2021/09/25 10:45:25;;;;;;;10.65;5.68;;;;;;;27.19;46.70;98533.66;5050927;28;20224;-66
2021/09/25 10:48:09;;;;;;;9.50;6.07;;;;;;;26.71;48.62;98527.13;5066062;28;20025;-66
2021/09/25 10:50:39;;;;;;;13.00;5.88;;;;;;;26.98;47.06;98530.13;5067369;28;20013;-66
2021/09/25 10:53:09;;;;;;;10.30;5.50;;;;;;;26.41;46.01;98532.41;5067539;28;20316;-66
2021/09/25 10:55:37;;;;;;;10.90;4.75;;;;;;;26.52;46.11;98545.88;5051986;28;20009;-66
2021/09/25 10:58:26;;;;;;;9.70;5.32;;;;;;;26.18;47.23;98547.00;5063645;28;20021;-66
2021/09/25 11:00:59;;;;;;;12.38;5.00;;;;;;;25.56;46.51;98535.97;5047908;28;20035;-66
2021/09/25 11:03:39;;;;;;;9.70;5.80;;;;;;;25.67;48.21;98540.50;5047711;28;20031;-66
2021/09/25 11:06:06;;;;;;;8.35;4.85;;;;;;;25.68;47.49;98540.38;5047484;28;20220;-66
2021/09/25 11:08:33;;;;;;;7.32;5.57;;;;;;;26.02;49.03;98533.06;5047663;28;20017;-66
2021/09/25 11:11:04;;;;;;;10.38;5.53;;;;;;;26.26;48.09;98525.63;5047711;28;20027;-66
2021/09/25 11:14:05;;;;;;;7.38;5.18;;;;;;;26.30;46.98;98511.75;5047665;28;20360;-66
2021/09/25 11:16:52;;;;;;;8.73;4.85;;;;;;;26.00;47.06;98518.88;5047073;28;20030;-66
2021/09/25 11:19:20;;;;;;;7.78;5.07;;;;;;;25.98;47.31;98520.84;5047152;28;20021;-66
2021/09/25 11:21:47;;;;;;;9.85;6.25;;;;;;;26.18;46.17;98511.91;5047411;28;20025;-66
2021/09/25 11:24:13;;;;;;;10.32;4.90;;;;;;;25.84;44.24;98518.41;5047379;28;20088;-66
2021/09/25 11:26:39;;;;;;;10.15;4.97;;;;;;;25.79;46.58;98520.63;5047327;28;20029;-66
2021/09/25 11:29:09;;;;;;;7.43;3.95;;;;;;;25.76;43.73;98520.88;5047205;28;20025;-66
2021/09/25 11:31:35;;;;;;;7.40;4.28;;;;;;;26.11;45.74;98513.44;5047211;28;20052;-66
2021/09/25 11:34:02;;;;;;;7.35;4.45;;;;;;;26.27;45.16;98511.16;5046972;28;20247;-66